Time;durP1;ratioP1;P1;durP2;ratioP2;P2;SDS_P1;SDS_P2;PMS_P1;PMS_P2;Temp;Humidity;BMP_temperature;BMP_pressure;BME280_temperature;BME280_humidity;BME280_pressure;Samples;Min_cycle;Max_cycle;Signal;HPM_P1;HPM_P2
2024/02/01 00:01:08;;;;;;;;;51.33;43.33;;;;;-143.90;100.00;76942.31;4859483;28;104132;-70
2024/02/01 00:03:35;;;;;;;;;59.33;46.33;;;;;-143.90;100.00;76948.50;4867856;28;104622;-71
2024/02/01 00:06:01;;;;;;;;;49.67;40.00;;;;;-143.90;100.00;76948.50;4865003;28;102990;-71
2024/02/01 00:08:28;;;;;;;;;50.33;42.67;;;;;-143.90;100.00;76954.72;4868496;28;102293;-71
2024/02/01 00:10:56;;;;;;;;;49.00;40.00;;;;;-143.90;100.00;76948.50;4855142;28;104041;-72
2024/02/01 00:13:23;;;;;;;;;48.33;40.00;;;;;-143.90;100.00;76958.84;4861696;28;102652;-71
2024/02/01 00:15:49;;;;;;;;;51.67;42.00;;;;;-143.90;100.00;76958.84;4861458;28;102280;-71
2024/02/01 00:18:16;;;;;;;;;44.33;37.00;;;;;-143.90;100.00;76960.91;4866700;28;102052;-71
2024/02/01 00:20:43;;;;;;;;;34.67;31.67;;;;;-143.90;100.00;76960.91;4859892;28;103967;-71
2024/02/01 00:23:09;;;;;;;;;50.33;41.00;;;;;-143.90;100.00;76971.25;4863679;28;102421;-70
2024/02/01 00:25:36;;;;;;;;;45.00;37.33;;;;;-143.90;100.00;76983.66;4864364;28;102186;-70
2024/02/01 00:28:05;;;;;;;;;48.00;38.67;;;;;-143.90;100.00;76981.59;4866424;28;102623;-71
2024/02/01 00:30:32;;;;;;;;;53.00;43.67;;;;;-143.90;100.00;76987.81;4865189;28;108795;-71
2024/02/01 00:32:59;;;;;;;;;52.33;41.67;;;;;-143.90;100.00;76987.81;4860077;28;102382;-72
2024/02/01 00:35:25;;;;;;;;;60.00;44.00;;;;;-143.90;100.00;76991.94;4863987;28;102552;-71
2024/02/01 00:37:52;;;;;;;;;61.00;47.00;;;;;-143.90;100.00;76989.88;4869017;28;102394;-70
2024/02/01 00:40:19;;;;;;;;;61.33;45.33;;;;;-143.90;100.00;76989.88;4864798;28;104027;-72
2024/02/01 00:42:45;;;;;;;;;62.33;46.33;;;;;-143.90;100.00;76991.94;4854055;28;102675;-69
2024/02/01 00:45:12;;;;;;;;;60.00;47.00;;;;;-143.90;100.00;76991.94;4866345;28;102469;-71
2024/02/01 00:47:39;;;;;;;;;59.00;45.67;;;;;-143.90;100.00;77000.22;4868373;28;102636;-71
2024/02/01 00:50:06;;;;;;;;;55.00;44.00;;;;;-143.90;100.00;76987.81;4864265;28;103958;-71
2024/02/01 00:52:32;;;;;;;;;62.00;45.00;;;;;-143.90;100.00;76983.66;4866722;28;102529;-71
2024/02/01 00:54:59;;;;;;;;;60.33;44.00;;;;;-143.90;100.00;76991.94;4856560;28;103014;-71
2024/02/01 00:57:26;;;;;;;;;61.33;44.33;;;;;-143.90;100.00;76989.88;4864630;28;103815;-72
2024/02/01 00:59:52;;;;;;;;;55.67;43.33;;;;;-143.90;100.00;76985.75;4861160;28;103895;-72
2024/02/01 01:02:19;;;;;;;;;48.33;41.33;;;;;-143.90;100.00;76975.41;4865529;28;102854;-71
2024/02/01 01:04:46;;;;;;;;;47.00;36.33;;;;;-143.90;100.00;76969.19;4852087;28;102083;-71
2024/02/01 01:07:13;;;;;;;;;34.67;26.67;;;;;-143.90;100.00;76969.19;4863112;28;102007;-71
2024/02/01 01:09:39;;;;;;;;;45.67;40.00;;;;;-143.90;100.00;76958.84;4861215;28;104211;-71
2024/02/01 01:12:06;;;;;;;;;50.67;40.00;;;;;-143.90;100.00;76954.72;4863633;28;104053;-70
2024/02/01 01:14:34;;;;;;;;;45.00;36.67;;;;;-143.90;100.00;76946.44;4862110;28;102509;-71
2024/02/01 01:17:01;;;;;;;;;42.00;37.67;;;;;-143.90;100.00;76934.03;4853088;28;102748;-70
2024/02/01 01:19:27;;;;;;;;;46.00;38.67;;;;;-143.90;100.00;76934.03;4866776;28;104246;-71
2024/02/01 01:21:56;;;;;;;;;42.67;34.33;;;;;-143.90;100.00;76917.47;4865024;28;102176;-72
2024/02/01 01:24:23;;;;;;;;;45.33;37.00;;;;;-143.90;100.00;76917.47;4865082;28;102363;-72
2024/02/01 01:26:49;;;;;;;;;41.67;32.67;;;;;-143.90;100.00;76909.22;4852127;28;102008;-71
2024/02/01 01:29:16;;;;;;;;;38.00;28.00;;;;;-143.90;100.00;76909.22;4865461;28;103819;-72
2024/02/01 01:31:43;;;;;;;;;39.33;32.33;;;;;-143.90;100.00;76898.88;4865507;28;102519;-73
2024/02/01 01:34:09;;;;;;;;;37.33;35.00;;;;;-143.90;100.00;76894.72;4861273;28;102028;-72
2024/02/01 01:36:36;;;;;;;;;38.67;33.33;;;;;-143.90;100.00;76882.31;4868933;28;102236;-72
2024/02/01 01:39:03;;;;;;;;;45.33;36.67;;;;;-143.90;100.00;76880.25;4853633;28;109978;-73
2024/02/01 01:41:30;;;;;;;;;42.33;35.33;;;;;-143.90;100.00;76880.25;4863256;28;103158;-72
2024/02/01 01:43:56;;;;;;;;;44.33;37.00;;;;;-143.90;100.00;76865.78;4861130;28;102756;-71
2024/02/01 01:46:23;;;;;;;;;37.67;32.33;;;;;-143.90;100.00;76867.84;4862725;28;102650;-71
2024/02/01 01:48:50;;;;;;;;;34.00;28.00;;;;;-143.90;100.00;76867.84;4849702;28;104072;-71
2024/02/01 01:51:18;;;;;;;;;35.33;28.67;;;;;-143.90;100.00;76861.63;4860684;28;102416;-70
2024/02/01 01:53:45;;;;;;;;;42.00;36.67;;;;;-143.90;100.00;76857.50;4863522;28;103766;-70
2024/02/01 01:56:12;;;;;;;;;44.33;34.33;;;;;-143.90;100.00;76851.31;4862482;28;102287;-71
2024/02/01 01:58:41;;;;;;;;;47.00;39.33;;;;;-143.90;100.00;76847.16;4862994;28;105269;-73
2024/02/01 02:01:08;;;;;;;;;43.00;36.33;;;;;-143.90;100.00;76840.97;4861144;28;102495;-71
2024/02/01 02:03:40;;;;;;;;;32.00;29.00;;;;;-143.90;100.00;76832.69;4864323;28;102964;-73
2024/02/01 02:06:08;;;;;;;;;40.33;35.00;;;;;-143.90;100.00;76826.47;4859337;28;103523;-71
2024/02/01 02:08:34;;;;;;;;;39.00;34.33;;;;;-143.90;100.00;76822.34;4866021;28;108909;-72
2024/02/01 02:11:01;;;;;;;;;42.67;28.00;;;;;-143.90;100.00;76805.78;4854115;28;102466;-72
2024/02/01 02:13:28;;;;;;;;;32.67;29.67;;;;;-143.90;100.00;76797.53;4862028;28;101953;-72
2024/02/01 02:15:55;;;;;;;;;40.33;35.33;;;;;-143.90;100.00;76795.47;4863956;28;102183;-72
2024/02/01 02:18:22;;;;;;;;;40.00;36.33;;;;;-143.90;100.00;76793.38;4864199;28;104120;-72
2024/02/01 02:20:50;;;;;;;;;38.67;30.67;;;;;-143.90;100.00;76789.25;4853331;28;102964;-72
2024/02/01 02:23:18;;;;;;;;;30.67;28.00;;;;;-143.90;100.00;76780.97;4860153;28;102130;-72
2024/02/01 02:25:48;;;;;;;;;30.00;25.00;;;;;-143.90;100.00;76780.97;4865665;28;104544;-72
2024/02/01 02:28:15;;;;;;;;;32.00;26.00;;;;;-143.90;100.00;76772.72;4859004;28;104102;-72
2024/02/01 02:30:42;;;;;;;;;29.67;24.33;;;;;-143.90;100.00;76778.91;4855023;28;102571;-72
2024/02/01 02:33:08;;;;;;;;;36.33;32.00;;;;;-143.90;100.00;76776.84;4863433;28;102121;-72
2024/02/01 02:35:35;;;;;;;;;44.33;39.00;;;;;-143.90;100.00;76778.91;4868153;28;102260;-72
2024/02/01 02:38:02;;;;;;;;;37.33;35.00;;;;;-143.90;100.00;76774.78;4860132;28;106540;-72
2024/02/01 02:40:29;;;;;;;;;50.00;37.00;;;;;-143.90;100.00;76768.56;4868154;28;102766;-72
2024/02/01 02:42:55;;;;;;;;;46.67;38.67;;;;;-143.90;100.00;76768.56;4851087;28;102267;-71
2024/02/01 02:45:22;;;;;;;;;36.00;32.67;;;;;-143.90;100.00;76760.28;4862654;28;102012;-72
2024/02/01 02:47:49;;;;;;;;;49.00;34.33;;;;;-143.90;100.00;76760.28;4864504;28;104051;-71
2024/02/01 02:50:16;;;;;;;;;35.00;27.33;;;;;-143.90;100.00;76752.03;4860945;28;104404;-71
2024/02/01 02:52:44;;;;;;;;;36.00;31.67;;;;;-143.90;100.00;76754.09;4854425;28;102601;-71
2024/02/01 02:55:11;;;;;;;;;47.33;39.00;;;;;-143.90;100.00;76752.03;4861289;28;102413;-71
2024/02/01 02:57:38;;;;;;;;;34.00;31.00;;;;;-143.90;100.00;76747.88;4861594;28;103983;-71
2024/02/01 03:00:05;;;;;;;;;41.67;36.00;;;;;-143.90;100.00;76743.75;4869192;28;102129;-71
2024/02/01 03:02:33;;;;;;;;;36.00;30.00;;;;;-143.90;100.00;76745.81;4862775;28;102472;-72
2024/02/01 03:05:00;;;;;;;;;37.67;30.33;;;;;-143.90;100.00;76739.63;4854501;28;102344;-72
2024/02/01 03:07:28;;;;;;;;;35.67;33.67;;;;;-143.90;100.00;76737.53;4862330;28;104115;-71
2024/02/01 03:09:55;;;;;;;;;37.00;31.67;;;;;-143.90;100.00;76733.41;4866926;28;102463;-72
2024/02/01 03:12:22;;;;;;;;;36.67;27.00;;;;;-143.90;100.00;76727.22;4858056;28;102121;-72
2024/02/01 03:14:50;;;;;;;;;34.33;29.00;;;;;-143.90;100.00;76727.22;4859131;28;102081;-71
2024/02/01 03:17:20;;;;;;;;;33.00;28.00;;;;;-143.90;100.00;76718.94;4862193;28;104091;-73
2024/02/01 03:19:50;;;;;;;;;38.33;31.33;;;;;-143.90;100.00;76716.88;4861415;28;101967;-71
2024/02/01 03:22:19;;;;;;;;;39.67;28.33;;;;;-143.90;100.00;76706.53;4862985;28;102574;-72
2024/02/01 03:24:46;;;;;;;;;37.67;28.33;;;;;-143.90;100.00;76714.78;4854369;28;102086;-71
2024/02/01 03:27:14;;;;;;;;;39.00;31.33;;;;;-143.90;100.00;76721.00;4859233;28;104032;-71
2024/02/01 03:29:43;;;;;;;;;29.67;25.00;;;;;-143.90;100.00;76718.94;4858985;28;102475;-70
2024/02/01 03:32:11;;;;;;;;;35.33;25.67;;;;;-143.90;100.00;76714.78;4860127;28;102382;-71
2024/02/01 03:34:38;;;;;;;;;38.00;33.00;;;;;-143.90;100.00;76727.22;4860921;28;102558;-71
2024/02/01 03:37:05;;;;;;;;;36.33;31.67;;;;;-143.90;100.00;76723.06;4859215;28;103640;-71
2024/02/01 03:39:32;;;;;;;;;32.33;25.67;;;;;-143.90;100.00;76710.66;4879237;28;102673;-71
2024/02/01 03:41:59;;;;;;;;;43.33;38.00;;;;;-143.90;100.00;76710.66;4866256;28;102195;-72
2024/02/01 03:44:26;;;;;;;;;31.67;26.67;;;;;-143.90;100.00;76704.47;4867930;28;103683;-71
2024/02/01 03:46:54;;;;;;;;;37.67;33.00;;;;;-143.90;100.00;76696.19;4854139;28;104119;-71
2024/02/01 03:49:21;;;;;;;;;39.33;32.67;;;;;-143.90;100.00;76692.03;4868972;28;102880;-71
2024/02/01 03:51:48;;;;;;;;;34.33;29.00;;;;;-143.90;100.00;76692.03;4866779;28;102780;-70
2024/02/01 03:54:15;;;;;;;;;34.67;30.00;;;;;-143.90;100.00;76689.97;4870603;28;102133;-71
2024/02/01 03:56:42;;;;;;;;;38.67;30.67;;;;;-143.90;100.00;76692.03;4861463;28;104001;-72
2024/02/01 03:59:09;;;;;;;;;38.00;31.33;;;;;-143.90;100.00;76683.78;4862928;28;102529;-71
2024/02/01 04:01:40;;;;;;;;;38.33;33.33;;;;;-143.90;100.00;76677.56;4869339;28;102568;-72
2024/02/01 04:04:07;;;;;;;;;35.33;33.33;;;;;-143.90;100.00;76677.56;4865178;28;102330;-72
2024/02/01 04:06:35;;;;;;;;;36.67;33.00;;;;;-143.90;100.00;76673.44;4864998;28;108689;-73
2024/02/01 04:09:05;;;;;;;;;46.67;32.67;;;;;-143.90;100.00;76677.56;4857534;28;102421;-72
2024/02/01 04:11:32;;;;;;;;;40.33;30.00;;;;;-143.90;100.00;76673.44;4868621;28;104591;-72
2024/02/01 04:14:00;;;;;;;;;44.00;30.00;;;;;-143.90;100.00;76671.38;4868266;28;103001;-72
2024/02/01 04:16:29;;;;;;;;;36.00;32.00;;;;;-143.90;100.00;76669.28;4865655;28;104515;-72
2024/02/01 04:18:56;;;;;;;;;38.33;32.67;;;;;-143.90;100.00;76669.28;4857685;28;104738;-73
2024/02/01 04:21:23;;;;;;;;;38.00;33.33;;;;;-143.90;100.00;76673.44;4867229;28;101999;-72
2024/02/01 04:23:50;;;;;;;;;40.33;34.00;;;;;-143.90;100.00;76675.50;4868882;28;102285;-72
2024/02/01 04:26:16;;;;;;;;;37.67;32.33;;;;;-143.90;100.00;76671.38;4866811;28;103971;-71
2024/02/01 04:28:43;;;;;;;;;39.00;29.00;;;;;-143.90;100.00;76665.16;4863996;28;102673;-72
2024/02/01 04:31:11;;;;;;;;;37.67;34.00;;;;;-143.90;100.00;76669.28;4865553;28;101962;-71
2024/02/01 04:33:40;;;;;;;;;46.00;35.33;;;;;-143.90;100.00;76681.72;4868632;28;105006;-72
2024/02/01 04:36:08;;;;;;;;;41.67;36.33;;;;;-143.90;100.00;76687.91;4865396;28;109389;-72
2024/02/01 04:38:36;;;;;;;;;44.00;36.33;;;;;-143.90;100.00;76681.72;4868645;28;104338;-72
2024/02/01 04:41:05;;;;;;;;;35.00;29.67;;;;;-143.90;100.00;76685.84;4858571;28;102438;-72
2024/02/01 04:43:32;;;;;;;;;37.33;30.33;;;;;-143.90;100.00;76677.56;4864658;28;102349;-73
2024/02/01 04:45:59;;;;;;;;;36.67;28.33;;;;;-143.90;100.00;76675.50;4864755;28;104249;-72
2024/02/01 04:48:25;;;;;;;;;32.50;31.00;;;;;-143.90;100.00;76677.56;4870015;28;102346;-73
2024/02/01 04:50:52;;;;;;;;;46.33;33.67;;;;;-143.90;100.00;76679.63;4851878;28;103582;-72
2024/02/01 04:53:19;;;;;;;;;38.00;33.00;;;;;-143.90;100.00;76677.56;4862155;28;102846;-72
2024/02/01 04:55:49;;;;;;;;;49.33;38.67;;;;;-143.90;100.00;76685.84;4861527;28;104423;-71
2024/02/01 04:58:20;;;;;;;;;40.00;33.67;;;;;-143.90;100.00;76683.78;4861021;28;102128;-71
2024/02/01 05:00:48;;;;;;;;;30.33;25.67;;;;;-143.90;100.00;76683.78;4846270;28;102575;-71
2024/02/01 05:03:15;;;;;;;;;46.00;33.67;;;;;-143.90;100.00;76685.84;4865840;28;102059;-72
2024/02/01 05:05:45;;;;;;;;;41.00;32.00;;;;;-143.90;100.00;76694.13;4860058;28;103826;-71
2024/02/01 05:08:13;;;;;;;;;31.00;28.67;;;;;-143.90;100.00;76685.84;4860132;28;102934;-72
2024/02/01 05:10:43;;;;;;;;;33.25;29.25;;;;;-143.90;100.00;76677.56;4859568;28;102265;-72
2024/02/01 05:13:14;;;;;;;;;36.00;29.33;;;;;-143.90;100.00;76679.63;4862665;28;102435;-72
2024/02/01 05:15:46;;;;;;;;;32.67;27.33;;;;;-143.90;100.00;76679.63;4861728;28;103139;-71
2024/02/01 05:18:14;;;;;;;;;42.33;33.67;;;;;-143.90;100.00;76681.72;4864090;28;102223;-71
2024/02/01 05:20:49;;;;;;;;;33.33;28.00;;;;;-143.90;100.00;76681.72;4855263;28;105085;-72
2024/02/01 05:23:16;;;;;;;;;36.00;30.67;;;;;-143.90;100.00;76671.38;4864054;28;103627;-72
2024/02/01 05:25:43;;;;;;;;;39.33;33.67;;;;;-143.90;100.00;76661.03;4860592;28;103999;-72
2024/02/01 05:28:09;;;;;;;;;37.67;30.67;;;;;-143.90;100.00;76669.28;4861471;28;102772;-72
2024/02/01 05:30:41;;;;;;;;;44.00;39.33;;;;;-143.90;100.00;76673.44;4865645;28;102833;-72
2024/02/01 05:33:08;;;;;;;;;41.33;39.33;;;;;-143.90;100.00;76665.16;4854716;28;102392;-71
2024/02/01 05:35:35;;;;;;;;;45.00;38.67;;;;;-143.90;100.00;76663.09;4861900;28;110168;-72
2024/02/01 05:38:05;;;;;;;;;48.33;39.67;;;;;-143.90;100.00;76665.16;4859459;28;102634;-72
2024/02/01 05:40:32;;;;;;;;;35.00;29.67;;;;;-143.90;100.00;76667.22;4853473;28;103063;-71
2024/02/01 05:43:01;;;;;;;;;58.00;41.67;;;;;-143.90;100.00;76677.56;4842957;28;102679;-71
2024/02/01 05:45:28;;;;;;;;;47.00;40.00;;;;;-143.90;100.00;76669.28;4853183;28;104096;-71
2024/02/01 05:47:57;;;;;;;;;60.00;42.00;;;;;-143.90;100.00;76669.28;4855589;28;102584;-70
2024/02/01 05:50:24;;;;;;;;;52.67;37.67;;;;;-143.90;100.00;76669.28;4854000;28;102615;-70
2024/02/01 05:52:50;;;;;;;;;56.00;43.33;;;;;-143.90;100.00;76667.22;4850211;28;102624;-70
2024/02/01 05:55:17;;;;;;;;;46.00;38.00;;;;;-143.90;100.00;76669.28;4860219;28;103934;-70
2024/02/01 05:57:43;;;;;;;;;57.67;43.67;;;;;-143.90;100.00;76667.22;4859737;28;102193;-70
2024/02/01 06:00:11;;;;;;;;;44.67;41.00;;;;;-143.90;100.00;76665.16;4860173;28;102676;-71
2024/02/01 06:02:39;;;;;;;;;39.00;38.67;;;;;-143.90;100.00;76665.16;4863577;28;102142;-70
2024/02/01 06:05:07;;;;;;;;;46.67;39.00;;;;;-143.90;100.00;76665.16;4857757;28;103533;-71
2024/02/01 06:07:33;;;;;;;;;49.67;40.33;;;;;-143.90;100.00;76663.09;4862505;28;102962;-70
2024/02/01 06:10:00;;;;;;;;;52.67;40.33;;;;;-143.90;100.00;76654.81;4861365;28;102264;-71
2024/02/01 06:12:28;;;;;;;;;48.67;36.33;;;;;-143.90;100.00;76650.69;4865234;28;102761;-71
2024/02/01 06:15:00;;;;;;;;;58.33;43.67;;;;;-143.90;100.00;76648.63;4852579;28;104104;-71
2024/02/01 06:17:27;;;;;;;;;51.33;42.33;;;;;-143.90;100.00;76644.47;4867808;28;102071;-71
2024/02/01 06:19:55;;;;;;;;;51.67;41.00;;;;;-143.90;100.00;76632.06;4852096;28;102550;-70
2024/02/01 06:22:22;;;;;;;;;53.67;39.00;;;;;-143.90;100.00;76632.06;4866537;28;102751;-70
2024/02/01 06:24:49;;;;;;;;;48.33;39.67;;;;;-143.90;100.00;76634.13;4860342;28;104029;-70
2024/02/01 06:27:15;;;;;;;;;46.67;38.00;;;;;-143.90;100.00;76623.78;4868516;28;102172;-70
2024/02/01 06:29:42;;;;;;;;;47.33;40.67;;;;;-143.90;100.00;76623.78;4854671;28;102014;-71
2024/02/01 06:32:19;;;;;;;;;47.00;41.33;;;;;-143.90;100.00;76630.00;4871284;28;102101;-69
2024/02/01 06:34:54;;;;;;;;;49.67;39.00;;;;;-143.90;100.00;76621.72;4857926;28;109081;-69
2024/02/01 06:37:21;;;;;;;;;50.67;42.67;;;;;-143.90;100.00;76615.53;4866460;28;103085;-70
2024/02/01 06:40:10;;;;;;;;;54.00;40.67;;;;;-143.90;100.00;76611.38;4864871;28;102330;-69
2024/02/01 06:45:32;;;;;;;;;62.00;50.33;;;;;-143.90;100.00;76619.66;4864528;28;109581;-70
2024/02/01 06:48:04;;;;;;;;;62.00;46.67;;;;;-143.90;100.00;76603.13;4866629;28;102229;-70
2024/02/01 06:53:20;;;;;;;;;62.67;46.33;;;;;-143.90;100.00;76584.50;4862952;28;102403;-71
2024/02/01 06:55:57;;;;;;;;;60.00;43.33;;;;;-143.90;100.00;76582.44;4865791;28;104039;-72
2024/02/01 06:58:47;;;;;;;;;62.33;42.33;;;;;-143.90;100.00;76574.16;4862368;28;102575;-71
2024/02/01 07:01:24;;;;;;;;;55.00;46.33;;;;;-143.90;100.00;76574.16;4860326;28;102342;-69
2024/02/01 07:03:57;;;;;;;;;61.00;47.00;;;;;-143.90;100.00;76561.75;4860237;28;104106;-71
2024/02/01 07:06:38;;;;;;;;;58.00;41.00;;;;;-143.90;100.00;76553.47;4864045;28;103968;-71
2024/02/01 07:09:27;;;;;;;;;64.67;45.33;;;;;-143.90;100.00;76553.47;4852238;28;102506;-71
2024/02/01 07:15:09;;;;;;;;;58.33;45.33;;;;;-143.90;100.00;76543.13;4822626;28;104600;-70
2024/02/01 07:17:43;;;;;;;;;54.00;41.33;;;;;-143.90;100.00;76541.06;4863571;28;103962;-71
2024/02/01 07:20:14;;;;;;;;;66.00;46.33;;;;;-143.90;100.00;76528.66;4865722;28;102443;-71
2024/02/01 07:23:33;;;;;;;;;55.00;44.00;;;;;-143.90;100.00;76528.66;4863876;28;102180;-71
2024/02/01 07:25:36;;;;;;;;;58.00;40.67;;;;;-143.90;100.00;76532.78;4862141;28;103510;-72
2024/02/01 07:58:23;;;;;;;;;66.33;48.00;;;;;-143.90;100.00;76512.13;4871999;28;102484;-71
2024/02/01 08:00:56;;;;;;;;;53.00;42.33;;;;;-143.90;100.00;76503.84;4854569;28;104308;-71
2024/02/01 08:08:40;;;;;;;;;63.00;45.67;;;;;-143.90;100.00;76483.16;4868723;28;101961;-71
2024/02/01 08:11:07;;;;;;;;;54.00;42.00;;;;;-143.90;100.00;76474.91;4860337;28;108790;-72
2024/02/01 08:13:35;;;;;;;;;61.33;46.33;;;;;-143.90;100.00;76487.31;4866278;28;102209;-71
2024/02/01 08:16:02;;;;;;;;;68.00;49.00;;;;;-143.90;100.00;76472.81;4865726;28;102556;-71
2024/02/01 08:18:35;;;;;;;;;57.67;41.00;;;;;-143.90;100.00;76479.03;4865334;28;102286;-70
2024/02/01 08:21:14;;;;;;;;;58.33;41.33;;;;;-143.90;100.00;76462.47;4857259;28;103571;-71
2024/02/01 08:23:41;;;;;;;;;61.00;46.00;;;;;-143.90;100.00;76472.81;4865438;28;102203;-69
2024/02/01 08:26:08;;;;;;;;;59.67;46.67;;;;;-143.90;100.00;76464.56;4864799;28;102467;-70
2024/02/01 08:28:35;;;;;;;;;62.33;46.00;;;;;-143.90;100.00;76462.47;4865432;28;102598;-71
2024/02/01 08:31:04;;;;;;;;;60.00;46.33;;;;;-143.90;100.00;76466.63;4853175;28;104153;-71
2024/02/01 08:33:30;;;;;;;;;57.67;45.00;;;;;-143.90;100.00;76456.28;4865430;28;102190;-71
2024/02/01 08:35:58;;;;;;;;;57.67;44.33;;;;;-143.90;100.00;76456.28;4866284;28;102718;-71
2024/02/01 08:38:24;;;;;;;;;61.00;48.67;;;;;-143.90;100.00;76458.34;4867056;28;102925;-71
2024/02/01 08:40:51;;;;;;;;;60.33;48.00;;;;;-143.90;100.00;76450.06;4851835;28;104073;-71
2024/02/01 08:43:17;;;;;;;;;58.00;45.67;;;;;-143.90;100.00;76437.66;4866847;28;103869;-71
2024/02/01 08:45:44;;;;;;;;;60.67;46.00;;;;;-143.90;100.00;76431.47;4859616;28;102111;-71
2024/02/01 08:48:12;;;;;;;;;58.33;45.33;;;;;-143.90;100.00;76433.53;4867590;28;102302;-71
2024/02/01 08:50:45;;;;;;;;;64.00;47.67;;;;;-143.90;100.00;76429.41;4868094;28;104293;-71
2024/02/01 08:53:13;;;;;;;;;64.67;46.00;;;;;-143.90;100.00;76433.53;4864718;28;102514;-72
2024/02/01 08:55:41;;;;;;;;;63.00;45.00;;;;;-143.90;100.00;76419.06;4868089;28;102352;-72
2024/02/01 08:58:08;;;;;;;;;64.33;45.67;;;;;-143.90;100.00;76412.84;4855502;28;102430;-71
2024/02/01 09:00:38;;;;;;;;;55.67;42.00;;;;;-143.90;100.00;76406.66;4866122;28;108946;-72
2024/02/01 09:03:06;;;;;;;;;57.00;48.00;;;;;-143.90;100.00;76400.44;4853032;28;102291;-71
2024/02/01 09:05:39;;;;;;;;;62.33;48.33;;;;;-143.90;100.00;76406.66;4865572;28;102269;-71
2024/02/01 09:08:15;;;;;;;;;61.67;47.67;;;;;-143.90;100.00;76392.16;4865919;28;104899;-71
2024/02/01 09:11:00;;;;;;;;;61.33;45.33;;;;;-143.90;100.00;76390.09;4860462;28;108910;-72
2024/02/01 09:13:28;;;;;;;;;59.00;47.00;;;;;-143.90;100.00;76383.91;4866430;28;102091;-70
2024/02/01 09:15:56;;;;;;;;;55.33;44.67;;;;;-143.90;100.00;76379.75;4869625;28;102105;-71
2024/02/01 09:18:25;;;;;;;;;46.33;40.33;;;;;-143.90;100.00;76383.91;4866549;28;102919;-72
2024/02/01 09:20:52;;;;;;;;;59.33;43.33;;;;;-143.90;100.00;76394.25;4856184;28;104991;-70
2024/02/01 09:23:22;;;;;;;;;55.67;40.33;;;;;-143.90;100.00;76394.25;4864162;28;102350;-72
2024/02/01 09:25:49;;;;;;;;;54.33;44.00;;;;;-143.90;100.00;76400.44;4860480;28;102271;-70
2024/02/01 09:28:15;;;;;;;;;55.33;43.33;;;;;-143.90;100.00;76400.44;4867541;28;102621;-70
2024/02/01 09:30:46;;;;;;;;;54.00;43.67;;;;;-143.90;100.00;76404.56;4861310;28;104084;-70
2024/02/01 09:33:18;;;;;;;;;55.00;41.00;;;;;-143.90;100.00;76414.91;4866468;28;102237;-69
2024/02/01 09:35:46;;;;;;;;;55.00;45.67;;;;;-143.90;100.00;76427.31;4864697;28;101983;-70
2024/02/01 09:38:13;;;;;;;;;55.33;42.33;;;;;-143.90;100.00;76425.25;4865956;28;102009;-69
2024/02/01 09:40:43;;;;;;;;;57.33;44.00;;;;;-143.90;100.00;76437.66;4861636;28;104420;-70
2024/02/01 09:43:21;;;;;;;;;59.67;46.67;;;;;-143.90;100.00;76445.94;4861014;28;102034;-71
2024/02/01 09:45:52;;;;;;;;;59.00;44.00;;;;;-143.90;100.00;76448.00;4862280;28;102392;-72
2024/02/01 09:48:20;;;;;;;;;48.00;42.00;;;;;-143.90;100.00;76450.06;4864793;28;101964;-72
2024/02/01 09:50:57;;;;;;;;;46.33;41.67;;;;;-143.90;100.00;76456.28;4854023;28;104064;-71
2024/02/01 09:53:26;;;;;;;;;144.00;116.00;;;;;-143.90;100.00;76460.41;4862137;28;102449;-71
2024/02/01 09:55:58;;;;;;;;;112.50;96.00;;;;;-143.90;100.00;76460.41;4866644;28;102288;-71
2024/02/01 09:58:26;;;;;;;;;83.50;65.75;;;;;-143.90;100.00;76458.34;4865506;28;102544;-72
2024/02/01 10:00:53;;;;;;;;;75.67;55.33;;;;;-143.90;100.00;76452.16;4854753;28;103222;-71
2024/02/01 10:03:26;;;;;;;;;70.67;54.00;;;;;-143.90;100.00;76464.56;4866862;28;102499;-70
2024/02/01 10:05:54;;;;;;;;;67.00;51.00;;;;;-143.90;100.00;76476.97;4860338;28;102172;-70
2024/02/01 10:08:23;;;;;;;;;71.67;53.00;;;;;-143.90;100.00;76491.44;4868455;28;102986;-71
2024/02/01 10:10:50;;;;;;;;;57.33;49.33;;;;;-143.90;100.00;76497.63;4855453;28;104128;-70
2024/02/01 10:13:18;;;;;;;;;58.00;42.67;;;;;-143.90;100.00;76487.31;4866877;28;102158;-71
2024/02/01 10:15:46;;;;;;;;;60.67;46.67;;;;;-143.90;100.00;76507.97;4865126;28;102362;-71
2024/02/01 10:18:19;;;;;;;;;66.33;48.33;;;;;-143.90;100.00;76510.06;4867645;28;102713;-71
2024/02/01 10:20:51;;;;;;;;;64.33;49.67;;;;;-143.90;100.00;76507.97;4858449;28;104173;-72
2024/02/01 10:23:21;;;;;;;;;65.00;47.00;;;;;-143.90;100.00;76507.97;4862357;28;102421;-71
2024/02/01 10:25:56;;;;;;;;;62.00;49.67;;;;;-143.90;100.00;76512.13;4860375;28;102248;-71
2024/02/01 10:28:25;;;;;;;;;54.33;42.33;;;;;-143.90;100.00;76520.38;4862714;28;102898;-71
2024/02/01 10:30:52;;;;;;;;;57.33;41.33;;;;;-143.90;100.00;76516.25;4855370;28;105609;-71
2024/02/01 10:33:25;;;;;;;;;47.67;38.00;;;;;-143.90;100.00;76516.25;4864719;28;102256;-72
2024/02/01 10:35:58;;;;;;;;;57.67;44.00;;;;;-143.90;100.00;76524.53;4862666;28;101919;-70
2024/02/01 10:38:26;;;;;;;;;49.33;40.67;;;;;-143.90;100.00;76512.13;4858602;28;102337;-72
2024/02/01 10:41:11;;;;;;;;;53.00;40.00;;;;;-143.90;100.00;76503.84;4838013;28;104915;-71
2024/02/01 10:43:41;;;;;;;;;52.00;38.67;;;;;-143.90;100.00;76516.25;4865305;28;102543;-71
2024/02/01 10:46:10;;;;;;;;;43.00;32.75;;;;;-143.90;100.00;76514.19;4866766;28;101979;-71
2024/02/01 10:48:44;;;;;;;;;54.00;39.67;;;;;-143.90;100.00;76514.19;4863456;28;102014;-71
2024/02/01 10:51:11;;;;;;;;;29.00;26.50;;;;;-143.90;100.00;76512.13;4858840;28;108843;-71
2024/02/01 10:53:43;;;;;;;;;47.75;36.50;;;;;-143.90;100.00;76514.19;4862412;28;104767;-71
2024/02/01 10:56:15;;;;;;;;;39.00;35.75;;;;;-143.90;100.00;76514.19;4862429;28;102061;-71
2024/02/01 10:58:47;;;;;;;;;35.50;29.00;;;;;-143.90;100.00;76516.25;4867329;28;103384;-70
2024/02/01 11:01:19;;;;;;;;;41.50;33.75;;;;;-143.90;100.00;76497.63;4863493;28;108759;-71
2024/02/01 11:03:50;;;;;;;;;31.00;25.25;;;;;-143.90;100.00;76481.09;4863569;28;102099;-72
2024/02/01 11:06:18;;;;;;;;;40.00;33.75;;;;;-143.90;100.00;76491.44;4862583;28;102636;-72
2024/02/01 11:08:47;;;;;;;;;32.25;28.00;;;;;-143.90;100.00;76489.38;4861169;28;102096;-69
2024/02/01 11:11:17;;;;;;;;;41.25;35.50;;;;;-143.90;100.00;76487.31;4862033;28;104180;-70
2024/02/01 11:14:06;;;;;;;;;35.50;29.25;;;;;-143.90;100.00;76472.81;4863259;28;102481;-70
2024/02/01 11:16:48;;;;;;;;;32.25;29.50;;;;;-143.90;100.00;76464.56;4863415;28;102230;-71
2024/02/01 11:19:25;;;;;;;;;36.75;32.25;;;;;-143.90;100.00;76454.22;4859979;28;102893;-71
2024/02/01 11:21:55;;;;;;;;;33.00;30.75;;;;;-143.90;100.00;76445.94;4861034;28;103950;-71
2024/02/01 11:24:24;;;;;;;;;37.25;31.00;;;;;-143.90;100.00;76437.66;4865329;28;102179;-71
2024/02/01 11:26:57;;;;;;;;;47.00;37.67;;;;;-143.90;100.00;76445.94;4852896;28;102747;-71
2024/02/01 11:29:27;;;;;;;;;45.50;35.25;;;;;-143.90;100.00;76423.19;4866552;28;102632;-73
2024/02/01 11:31:56;;;;;;;;;47.67;34.00;;;;;-143.90;100.00;76433.53;4862591;28;104034;-71
2024/02/01 11:34:27;;;;;;;;;47.00;41.00;;;;;-143.90;100.00;76439.75;4861319;28;102237;-71
2024/02/01 11:36:57;;;;;;;;;54.67;46.00;;;;;-143.90;100.00;76450.06;4855483;28;101907;-72
2024/02/01 11:39:24;;;;;;;;;62.00;45.33;;;;;-143.90;100.00;76450.06;4863615;28;102166;-71